Staraja Russa, Russia
Current Conditions -  °F | °C
As of 8:30 AM on Saturday 25 Oct 2014 (Local Time) from ULOO Reporting Station
Clear Clear  
Wind Chill: 17°   Ceiling: Unl
Heat Index: 25°   Visibility: 4mi
Dew Point: 19°   Wind: 7mph
Humidity: 80%   Direction: 180°S
Pressure: 30.5"   Gusts: NA
Location:  57.99°N, 31.36°E
Report Text: ULOO 250530Z 18003MPS P6000 NSC M04/M07 Q1033 19090070 NOSIGRMK QFE770
Loading
Personal Weather Stations






























Interactive Weather Map
Tropical Storm Tracking
New forecast layout! Learn more

10-Day Weather Forecast

Advertisements
Track Severe Weather on mobile